Main page
METAR-TAF:

METAR-TAF

Airports :

Roman Tmetuchl International Airport

Koror, Babeldaob, Palau

latitude: 07-22N, longitude: 134-32E, elevation: 54 m

Current weather observation

The report was made 55 minutes ago, at 11:50 UTC
Calm wind
Temperature 25°C
Humidity 94%
Pressure 1011 hPa
Visibility: 24.1 km
Scattered clouds at a height of 1600 ft, Towering cumulus.
Broken clouds at a height of 12000 ft
Broken clouds at a height of 30000 ft

METAR: PTRO 181150Z 00000KT 15SM SCT016TCU BKN120 BKN300 25/24 A2984 RMK TCU ALQDS

Time: 21:45 (12:45 UTC)

Forecast

The report was made 1 hour and 25 minutes ago, at 11:20 UTC
Forecast valid from 18 at 12 UTC to 19 at 12 UTC
Wind 5 kt from variable directions
Visibility: 10 km
Scattered clouds at a height of 1600 ft
Broken clouds at a height of 12000 ft
showers in vicinity

TAF: PTRO 181120Z 1812/1912 VRB05KT P6SM VCSH SCT016 BKN120

Weather observations and forecasts of more than 4000 airports (METAR and TAF reports).

The available stations are represented by yellow and red dots on the map.

Hover mouse over dot to see the name of the station.

Then click to see weather observations and forecasts.

To change the map : click on the green buttons with a black cross to zoom in, on the green button with a dash to zoom out, or on the green arrows for adjacent maps.


METAR-TAF: